Time;durP1;ratioP1;P1;durP2;ratioP2;P2;SDS_P1;SDS_P2;PMS_P1;PMS_P2;Temp;Humidity;BMP_temperature;BMP_pressure;BME280_temperature;BME280_humidity;BME280_pressure;Samples;Min_cycle;Max_cycle;Signal;HPM_P1;HPM_P2
2021/06/25 00:02:00;;;;;;;21.60;16.10;;;12.80;99.90;;;;;;5070684;28;20108;-61
2021/06/25 00:04:25;;;;;;;23.35;17.88;;;12.80;99.90;;;;;;5070644;28;20101;-61
2021/06/25 00:06:51;;;;;;;24.23;18.58;;;12.90;99.90;;;;;;5070534;28;20024;-61
2021/06/25 00:09:17;;;;;;;23.48;17.67;;;13.00;99.90;;;;;;5070348;28;20024;-60
2021/06/25 00:11:43;;;;;;;23.02;17.75;;;13.00;99.90;;;;;;5070368;28;20482;-60
2021/06/25 00:14:09;;;;;;;24.15;17.27;;;13.00;99.90;;;;;;5070776;28;20538;-60
2021/06/25 00:16:35;;;;;;;26.55;18.60;;;13.00;99.90;;;;;;5052289;28;20024;-60
2021/06/25 00:19:01;;;;;;;26.83;18.25;;;13.00;99.90;;;;;;5052511;28;20028;-60
2021/06/25 00:21:26;;;;;;;24.15;17.77;;;12.90;99.90;;;;;;5070291;28;20013;-60
2021/06/25 00:23:52;;;;;;;24.55;18.20;;;13.00;99.90;;;;;;5070581;28;20044;-60
2021/06/25 00:26:18;;;;;;;23.17;18.33;;;12.90;99.90;;;;;;5070500;28;20385;-60
2021/06/25 00:28:43;;;;;;;21.98;18.38;;;12.90;99.90;;;;;;5070344;28;20028;-60
2021/06/25 00:31:09;;;;;;;24.60;18.55;;;12.80;99.90;;;;;;5070474;28;20037;-60
2021/06/25 00:33:35;;;;;;;23.30;17.90;;;12.80;99.90;;;;;;5070291;28;20053;-60
2021/06/25 00:36:01;;;;;;;21.13;17.73;;;12.90;99.90;;;;;;5052303;28;20448;-60
2021/06/25 00:38:27;;;;;;;21.50;17.02;;;12.90;99.90;;;;;;5069123;28;20508;-60
2021/06/25 00:40:53;;;;;;;19.90;16.60;;;13.00;99.90;;;;;;5070203;28;20028;-60
2021/06/25 00:43:18;;;;;;;16.80;14.07;;;13.00;99.90;;;;;;5052530;28;20036;-60
2021/06/25 00:45:44;;;;;;;18.35;14.80;;;13.10;99.90;;;;;;5070328;28;20107;-61
2021/06/25 00:48:10;;;;;;;17.15;13.00;;;13.10;99.90;;;;;;5070158;28;20138;-61
2021/06/25 00:50:36;;;;;;;16.35;13.38;;;13.10;99.90;;;;;;5073388;28;20032;-62
2021/06/25 00:53:04;;;;;;;14.93;12.98;;;13.20;99.90;;;;;;5073655;28;20048;-61
2021/06/25 00:55:41;;;;;;;15.77;12.35;;;13.20;99.90;;;;;;5073684;28;20024;-61
2021/06/25 00:58:08;;;;;;;16.10;11.45;;;13.30;99.90;;;;;;5073580;28;20021;-61
2021/06/25 01:00:33;;;;;;;13.48;12.00;;;13.30;99.90;;;;;;5073682;28;20128;-60
2021/06/25 01:03:00;;;;;;;14.73;12.20;;;13.40;99.90;;;;;;5073518;28;20320;-60
2021/06/25 01:05:26;;;;;;;13.80;11.73;;;13.30;99.90;;;;;;5073879;28;20503;-61
2021/06/25 01:07:51;;;;;;;16.13;12.35;;;13.40;99.90;;;;;;5073397;28;20056;-61
2021/06/25 01:10:17;;;;;;;14.57;11.63;;;13.40;99.90;;;;;;5055307;28;20029;-61
2021/06/25 01:12:44;;;;;;;15.10;11.93;;;13.40;99.90;;;;;;5073373;28;20059;-61
2021/06/25 01:15:11;;;;;;;15.82;11.98;;;13.40;99.90;;;;;;5073510;28;20024;-61
2021/06/25 01:17:39;;;;;;;17.15;12.63;;;13.40;99.90;;;;;;5073600;28;20013;-61
2021/06/25 01:20:10;;;;;;;16.92;12.73;;;13.30;99.90;;;;;;5073247;28;20221;-62
2021/06/25 01:22:41;;;;;;;17.48;13.50;;;13.40;99.90;;;;;;5073194;28;20032;-62
2021/06/25 01:25:19;;;;;;;20.88;15.00;;;13.40;99.90;;;;;;5073554;28;20029;-62
2021/06/25 01:27:49;;;;;;;24.58;14.63;;;13.30;99.90;;;;;;5073275;28;20397;-62
2021/06/25 01:30:18;;;;;;;19.70;14.57;;;13.40;99.90;;;;;;5054772;28;20056;-62
2021/06/25 01:32:45;;;;;;;21.67;16.17;;;13.30;99.90;;;;;;5072983;28;20077;-62
2021/06/25 01:35:12;;;;;;;25.10;15.68;;;13.30;99.90;;;;;;5073492;28;20063;-62
2021/06/25 01:37:38;;;;;;;23.95;16.20;;;13.30;99.90;;;;;;5073010;28;20013;-62
2021/06/25 01:40:06;;;;;;;21.00;15.93;;;13.30;99.90;;;;;;5072733;28;20167;-62
2021/06/25 01:42:35;;;;;;;22.80;18.25;;;13.30;99.90;;;;;;5072762;28;20028;-62
2021/06/25 01:45:06;;;;;;;24.45;17.05;;;13.30;99.90;;;;;;5073050;28;20477;-63
2021/06/25 01:47:34;;;;;;;23.77;17.88;;;13.20;99.90;;;;;;5073234;28;20025;-62
2021/06/25 01:50:06;;;;;;;22.52;18.27;;;13.20;99.90;;;;;;5054828;28;20033;-62
2021/06/25 01:52:31;;;;;;;25.50;18.25;;;13.10;99.90;;;;;;5072713;28;20096;-62
2021/06/25 01:54:57;;;;;;;25.77;18.27;;;13.00;99.90;;;;;;5072805;28;20129;-62
2021/06/25 01:57:23;;;;;;;23.83;18.35;;;13.00;99.90;;;;;;5054644;28;20085;-62
2021/06/25 01:59:49;;;;;;;26.08;18.52;;;13.10;99.90;;;;;;5072632;28;20035;-62
2021/06/25 02:02:14;;;;;;;23.88;18.10;;;13.10;99.90;;;;;;5071740;28;20067;-62
2021/06/25 02:04:40;;;;;;;26.58;18.33;;;13.10;99.90;;;;;;5054588;28;20032;-62
2021/06/25 02:07:05;;;;;;;25.58;17.73;;;13.00;99.90;;;;;;5072499;28;20490;-62
2021/06/25 02:09:32;;;;;;;25.10;18.30;;;13.00;99.90;;;;;;5072333;28;20049;-61
2021/06/25 02:11:57;;;;;;;27.55;19.00;;;12.90;99.90;;;;;;5072308;28;20021;-62
2021/06/25 02:14:24;;;;;;;26.13;18.05;;;12.90;99.90;;;;;;5072546;28;20031;-61
2021/06/25 02:16:49;;;;;;;26.38;18.55;;;12.90;99.90;;;;;;5072219;28;20495;-62
2021/06/25 02:19:15;;;;;;;26.75;19.40;;;12.80;99.90;;;;;;5072256;28;20108;-62
2021/06/25 02:21:41;;;;;;;26.92;19.60;;;12.80;99.90;;;;;;5071981;28;20025;-62
2021/06/25 02:24:07;;;;;;;31.30;19.83;;;12.80;99.90;;;;;;5072189;28;20477;-62
2021/06/25 02:26:32;;;;;;;30.17;20.08;;;12.80;99.90;;;;;;5054104;28;20025;-62
2021/06/25 02:28:58;;;;;;;25.40;19.27;;;12.80;99.90;;;;;;5071971;28;20050;-62
2021/06/25 02:31:24;;;;;;;31.00;20.33;;;12.80;99.90;;;;;;5071802;28;20029;-62
2021/06/25 02:33:50;;;;;;;31.40;20.33;;;12.80;99.90;;;;;;5071857;28;20115;-62
2021/06/25 02:36:15;;;;;;;32.63;20.70;;;12.80;99.90;;;;;;5053944;28;20422;-62
2021/06/25 02:38:41;;;;;;;29.27;21.10;;;12.80;99.90;;;;;;5071654;28;20389;-62
2021/06/25 02:41:07;;;;;;;29.17;20.20;;;12.80;99.90;;;;;;5071759;28;20024;-62
2021/06/25 02:43:32;;;;;;;29.73;20.00;;;12.80;99.90;;;;;;5071708;28;20150;-62
2021/06/25 02:45:58;;;;;;;26.73;20.30;;;12.90;99.90;;;;;;5053646;28;20494;-62
2021/06/25 02:48:24;;;;;;;31.02;20.98;;;12.90;99.90;;;;;;5071558;28;20073;-62
2021/06/25 02:50:49;;;;;;;26.52;19.55;;;12.90;99.90;;;;;;5071544;28;20034;-62
2021/06/25 02:53:15;;;;;;;25.48;19.15;;;12.90;99.90;;;;;;5071676;28;20020;-62
2021/06/25 02:55:50;;;;;;;26.42;20.15;;;12.90;99.90;;;;;;5071480;28;20024;-62
2021/06/25 02:58:17;;;;;;;28.52;20.42;;;12.80;99.90;;;;;;5071517;28;20031;-62
2021/06/25 03:00:43;;;;;;;28.02;21.20;;;12.80;99.90;;;;;;5071482;28;20028;-62
2021/06/25 03:03:08;;;;;;;26.80;20.13;;;12.90;99.90;;;;;;5071282;28;20035;-63
2021/06/25 03:05:34;;;;;;;34.40;19.75;;;12.90;99.90;;;;;;5071306;28;20024;-62
2021/06/25 03:08:00;;;;;;;28.35;19.90;;;12.90;99.90;;;;;;5071327;28;20066;-62
2021/06/25 03:10:25;;;;;;;28.67;19.75;;;13.00;99.90;;;;;;5070979;28;20020;-62
2021/06/25 03:12:51;;;;;;;27.48;20.60;;;12.90;99.90;;;;;;5052384;28;20035;-63
2021/06/25 03:15:17;;;;;;;30.90;21.40;;;12.90;99.90;;;;;;5071412;28;20028;-62
2021/06/25 03:17:42;;;;;;;29.33;21.40;;;12.90;99.90;;;;;;5053199;28;20123;-62
2021/06/25 03:20:08;;;;;;;27.58;20.65;;;12.90;99.90;;;;;;5071155;28;20096;-62
2021/06/25 03:22:34;;;;;;;28.85;21.25;;;12.90;99.90;;;;;;5071164;28;20083;-62
2021/06/25 03:25:00;;;;;;;28.55;20.90;;;12.80;99.90;;;;;;5071065;28;20473;-62
2021/06/25 03:27:25;;;;;;;32.38;20.92;;;12.80;99.90;;;;;;5071001;28;20028;-62
2021/06/25 03:29:51;;;;;;;33.00;21.90;;;12.80;99.90;;;;;;5070873;28;20035;-62
2021/06/25 03:32:17;;;;;;;32.90;20.92;;;12.80;99.90;;;;;;5070754;28;20052;-62
2021/06/25 03:34:43;;;;;;;30.73;21.77;;;12.80;99.90;;;;;;5070805;28;20017;-62
2021/06/25 03:37:09;;;;;;;29.10;20.13;;;12.90;99.90;;;;;;5070912;28;20035;-62
2021/06/25 03:39:35;;;;;;;29.25;20.77;;;12.90;99.90;;;;;;5052776;28;20707;-62
2021/06/25 03:42:01;;;;;;;30.58;21.23;;;13.00;99.90;;;;;;5070780;28;20051;-62
2021/06/25 03:44:27;;;;;;;32.05;22.00;;;13.00;99.90;;;;;;5070842;28;20027;-62
2021/06/25 03:46:53;;;;;;;34.67;22.58;;;13.00;99.90;;;;;;5070492;28;20025;-63
2021/06/25 03:49:18;;;;;;;31.90;22.20;;;13.10;99.90;;;;;;5052532;28;20546;-62
2021/06/25 03:51:44;;;;;;;33.65;23.13;;;13.10;99.90;;;;;;5052550;28;20060;-61
2021/06/25 03:54:09;;;;;;;29.65;21.83;;;13.10;99.90;;;;;;5070554;28;20032;-61
2021/06/25 03:56:35;;;;;;;32.13;20.80;;;13.20;99.90;;;;;;5070681;28;20044;-61
2021/06/25 03:59:01;;;;;;;34.45;22.85;;;13.20;99.90;;;;;;5070549;28;20413;-61
2021/06/25 04:01:26;;;;;;;28.38;20.35;;;13.20;99.90;;;;;;5071083;28;20099;-62
2021/06/25 04:03:52;;;;;;;31.67;21.95;;;13.20;99.90;;;;;;5070577;28;20050;-62
2021/06/25 04:06:18;;;;;;;32.45;21.23;;;13.20;99.90;;;;;;5070824;28;20028;-63
2021/06/25 04:08:47;;;;;;;29.52;22.25;;;13.20;99.90;;;;;;5070609;28;20020;-62
2021/06/25 04:11:13;;;;;;;29.33;22.02;;;13.20;99.90;;;;;;5052537;28;20049;-62
2021/06/25 04:13:38;;;;;;;31.48;23.00;;;13.30;99.90;;;;;;5070648;28;20063;-62
2021/06/25 04:16:04;;;;;;;32.30;23.17;;;13.30;99.90;;;;;;5070472;28;20089;-62
2021/06/25 04:18:30;;;;;;;30.55;21.40;;;13.30;99.90;;;;;;5070336;28;20024;-63
2021/06/25 04:20:59;;;;;;;34.67;22.38;;;13.30;99.90;;;;;;5070394;28;20501;-62
2021/06/25 04:23:25;;;;;;;32.55;23.15;;;13.30;99.90;;;;;;5070818;28;20134;-63
2021/06/25 04:25:50;;;;;;;29.40;21.42;;;13.20;99.90;;;;;;5074483;28;20128;-62
2021/06/25 04:28:16;;;;;;;32.40;21.98;;;13.20;99.90;;;;;;5074661;28;20024;-62
2021/06/25 04:30:43;;;;;;;33.20;23.10;;;13.20;99.90;;;;;;5074298;28;20024;-63
2021/06/25 04:33:12;;;;;;;30.33;21.33;;;13.20;99.90;;;;;;5074479;28;20380;-63
2021/06/25 04:35:38;;;;;;;33.88;22.70;;;13.30;99.90;;;;;;5074194;28;20047;-62
2021/06/25 04:38:04;;;;;;;33.85;22.92;;;13.30;99.90;;;;;;5055745;28;20020;-62
2021/06/25 04:40:32;;;;;;;38.28;23.38;;;13.30;99.90;;;;;;5074294;28;20541;-62
2021/06/25 04:42:58;;;;;;;33.85;21.92;;;13.30;99.90;;;;;;5074568;28;20384;-62
2021/06/25 04:45:24;;;;;;;32.33;21.27;;;13.40;99.90;;;;;;5074268;28;20046;-63
2021/06/25 04:47:50;;;;;;;34.78;22.65;;;13.30;99.90;;;;;;5056072;28;20028;-62
2021/06/25 04:50:15;;;;;;;30.75;21.95;;;13.30;99.90;;;;;;5074169;28;20389;-62
2021/06/25 04:52:41;;;;;;;41.30;22.80;;;13.30;99.90;;;;;;5056261;28;20469;-62
2021/06/25 04:55:07;;;;;;;32.20;22.40;;;13.40;99.90;;;;;;5073989;28;20062;-63
2021/06/25 04:57:34;;;;;;;27.67;20.00;;;13.40;99.90;;;;;;5073700;28;20027;-62
2021/06/25 04:59:59;;;;;;;37.10;23.48;;;13.50;99.90;;;;;;5073718;28;20095;-63
2021/06/25 05:02:25;;;;;;;29.35;20.85;;;13.30;99.90;;;;;;5073601;28;20100;-63
2021/06/25 05:04:51;;;;;;;31.90;21.95;;;13.40;99.90;;;;;;5056027;28;20041;-63
2021/06/25 05:07:17;;;;;;;38.28;22.20;;;13.40;99.90;;;;;;5073766;28;20103;-61
2021/06/25 05:09:42;;;;;;;31.77;22.15;;;13.40;99.90;;;;;;5073688;28;20024;-62
2021/06/25 05:12:08;;;;;;;33.85;22.40;;;13.50;99.90;;;;;;5073533;28;20017;-60
2021/06/25 05:14:34;;;;;;;32.22;20.58;;;13.50;99.90;;;;;;5055386;28;20055;-62
2021/06/25 05:16:59;;;;;;;30.77;19.92;;;13.50;99.90;;;;;;5073281;28;20060;-62
2021/06/25 05:19:25;;;;;;;28.90;19.63;;;13.50;99.90;;;;;;5073285;28;20095;-61
2021/06/25 05:21:51;;;;;;;29.55;18.95;;;13.60;99.90;;;;;;5073245;28;20032;-62
2021/06/25 05:24:16;;;;;;;33.33;20.50;;;13.60;99.90;;;;;;5055672;28;20071;-63
2021/06/25 05:26:42;;;;;;;35.40;21.48;;;13.50;99.90;;;;;;5073302;28;20021;-63
2021/06/25 05:29:07;;;;;;;29.25;19.60;;;13.50;99.90;;;;;;5073345;28;20031;-61
2021/06/25 05:31:33;;;;;;;30.25;19.15;;;13.70;99.90;;;;;;5055217;28;20443;-62
2021/06/25 05:33:59;;;;;;;34.50;20.95;;;13.60;99.90;;;;;;5073282;28;20024;-62
2021/06/25 05:36:25;;;;;;;28.73;20.10;;;13.60;99.90;;;;;;5072033;28;20082;-63
2021/06/25 05:38:50;;;;;;;28.02;19.83;;;13.70;99.90;;;;;;5072884;28;20048;-63
2021/06/25 05:41:17;;;;;;;33.15;19.80;;;13.70;99.90;;;;;;5072945;28;20445;-60
2021/06/25 05:43:42;;;;;;;29.52;20.05;;;13.80;99.90;;;;;;5073649;28;20044;-62
2021/06/25 05:46:10;;;;;;;28.52;20.65;;;13.80;99.90;;;;;;5069170;28;20391;-62
2021/06/25 05:48:36;;;;;;;33.58;21.92;;;13.80;99.90;;;;;;5072365;28;20024;-61
2021/06/25 05:51:03;;;;;;;30.35;19.48;;;13.90;99.90;;;;;;5070639;28;20386;-61
2021/06/25 05:53:30;;;;;;;24.50;18.00;;;14.00;99.90;;;;;;5071225;28;20500;-62
2021/06/25 05:55:56;;;;;;;27.10;19.85;;;13.90;99.90;;;;;;5071840;28;20018;-62
2021/06/25 05:58:22;;;;;;;29.85;19.58;;;13.90;99.90;;;;;;5072780;28;20436;-62
2021/06/25 06:00:47;;;;;;;30.23;19.90;;;14.00;99.90;;;;;;5072353;28;20095;-62
2021/06/25 06:03:13;;;;;;;27.48;17.90;;;14.00;99.90;;;;;;5047321;28;20479;-61
2021/06/25 06:05:39;;;;;;;23.85;17.35;;;14.00;99.90;;;;;;5067726;28;20082;-62
2021/06/25 06:08:05;;;;;;;27.92;18.73;;;14.10;99.90;;;;;;5059878;28;20032;-61
2021/06/25 06:10:31;;;;;;;29.27;17.88;;;14.20;99.90;;;;;;5064528;28;20036;-61
2021/06/25 06:12:56;;;;;;;25.05;17.58;;;14.50;99.90;;;;;;5063958;28;20024;-61
2021/06/25 06:15:22;;;;;;;25.38;16.75;;;14.60;99.90;;;;;;5062201;28;20108;-60
2021/06/25 06:17:48;;;;;;;24.38;15.55;;;14.60;99.90;;;;;;5065345;28;20021;-61
2021/06/25 06:20:21;;;;;;;25.88;16.13;;;14.70;99.90;;;;;;5036210;28;20536;-61
2021/06/25 06:31:10;;;;;;;25.15;14.73;;;15.00;99.90;;;;;;5065642;28;20040;-61
2021/06/25 06:33:41;;;;;;;20.67;14.50;;;15.10;99.90;;;;;;5060887;28;20035;-62
2021/06/25 06:39:14;;;;;;;21.88;12.75;;;15.20;99.90;;;;;;5055872;28;20052;-62
2021/06/25 06:41:41;;;;;;;22.67;15.13;;;15.30;99.90;;;;;;5056187;28;20708;-61
2021/06/25 06:44:07;;;;;;;17.15;13.98;;;15.20;99.90;;;;;;5039526;28;20433;-62
2021/06/25 06:46:34;;;;;;;26.70;14.82;;;15.40;99.90;;;;;;5055921;28;20073;-61
2021/06/25 06:49:00;;;;;;;20.80;14.23;;;15.30;99.90;;;;;;5041363;28;20449;-63
2021/06/25 06:51:27;;;;;;;23.92;13.82;;;15.30;99.90;;;;;;5057480;28;20033;-62
2021/06/25 06:53:53;;;;;;;17.92;11.60;;;15.30;99.90;;;;;;5042033;28;20452;-62
2021/06/25 06:56:21;;;;;;;19.60;13.73;;;15.20;99.90;;;;;;5042540;28;20025;-62
2021/06/25 06:58:48;;;;;;;22.45;14.05;;;15.10;99.90;;;;;;5056799;28;20028;-61
2021/06/25 07:01:14;;;;;;;21.50;13.38;;;15.20;99.90;;;;;;5061121;28;20275;-62
2021/06/25 07:03:39;;;;;;;21.55;13.45;;;15.40;99.90;;;;;;5060780;28;20020;-61
2021/06/25 07:06:06;;;;;;;16.90;12.95;;;15.40;99.90;;;;;;5039313;28;20032;-61
2021/06/25 07:08:32;;;;;;;23.20;14.82;;;15.50;99.90;;;;;;5035704;28;20037;-61
2021/06/25 07:10:58;;;;;;;21.13;13.98;;;15.60;99.90;;;;;;5059394;28;20033;-61
2021/06/25 07:13:24;;;;;;;19.17;13.13;;;15.50;99.90;;;;;;5058588;28;20025;-62
2021/06/25 07:15:49;;;;;;;20.98;13.35;;;15.40;99.90;;;;;;5060463;28;20141;-61
2021/06/25 07:18:15;;;;;;;17.08;12.35;;;15.30;99.90;;;;;;5065302;28;20024;-61
2021/06/25 07:20:41;;;;;;;18.90;12.77;;;15.30;99.90;;;;;;5061048;28;20035;-61
2021/06/25 07:23:07;;;;;;;18.65;13.48;;;15.30;99.90;;;;;;5057686;28;20032;-61
2021/06/25 07:25:33;;;;;;;18.85;13.68;;;15.30;99.90;;;;;;5063160;28;20031;-61
2021/06/25 07:27:59;;;;;;;20.95;13.18;;;15.30;99.90;;;;;;5049358;28;20040;-61
2021/06/25 07:30:25;;;;;;;17.02;13.32;;;15.40;99.90;;;;;;5060595;28;20473;-60
2021/06/25 07:32:51;;;;;;;18.65;12.38;;;15.60;99.90;;;;;;5041831;28;20029;-60
2021/06/25 07:35:17;;;;;;;18.60;12.30;;;15.60;99.90;;;;;;5057458;28;20011;-60
2021/06/25 07:37:43;;;;;;;16.65;12.73;;;15.70;99.90;;;;;;5060331;28;20043;-60
2021/06/25 07:40:10;;;;;;;13.55;11.60;;;15.60;99.90;;;;;;5053447;28;20071;-61
2021/06/25 07:42:36;;;;;;;18.83;13.00;;;15.60;99.90;;;;;;5062293;28;20028;-61
2021/06/25 07:45:07;;;;;;;15.50;11.52;;;15.70;99.90;;;;;;5054030;28;20485;-64
2021/06/25 07:47:37;;;;;;;16.27;11.98;;;15.60;99.90;;;;;;5054511;28;20438;-61
2021/06/25 07:50:06;;;;;;;17.25;12.60;;;15.50;99.90;;;;;;5062628;28;20040;-61
2021/06/25 07:52:32;;;;;;;19.38;12.80;;;15.60;99.90;;;;;;5041590;28;20031;-61
2021/06/25 07:54:57;;;;;;;17.15;12.25;;;15.60;99.90;;;;;;5055901;28;20029;-62
2021/06/25 07:57:23;;;;;;;16.70;11.80;;;15.70;99.90;;;;;;5054176;28;20132;-61
2021/06/25 07:59:49;;;;;;;17.33;12.88;;;15.80;99.90;;;;;;5041882;28;20043;-60
2021/06/25 08:02:15;;;;;;;12.93;10.57;;;15.90;99.90;;;;;;5068983;28;20044;-59
2021/06/25 08:04:45;;;;;;;13.25;10.88;;;16.20;99.90;;;;;;5071040;28;20028;-59
2021/06/25 08:07:12;;;;;;;17.42;11.00;;;16.30;99.90;;;;;;5075821;28;20024;-59
2021/06/25 08:09:38;;;;;;;18.77;11.63;;;16.60;99.90;;;;;;5072871;28;20119;-60
2021/06/25 08:12:04;;;;;;;14.30;11.30;;;17.00;99.90;;;;;;5068498;28;20104;-59
2021/06/25 08:14:29;;;;;;;15.50;10.40;;;17.30;99.90;;;;;;5071794;28;20468;-59
2021/06/25 08:16:55;;;;;;;15.80;10.13;;;17.10;99.90;;;;;;5072864;28;20024;-61
2021/06/25 08:19:21;;;;;;;14.95;11.38;;;16.80;99.90;;;;;;5068376;28;20248;-60
2021/06/25 08:21:46;;;;;;;16.60;11.05;;;16.70;99.90;;;;;;5063086;28;20029;-61
2021/06/25 08:24:12;;;;;;;15.05;10.50;;;16.70;99.90;;;;;;5065933;28;20074;-60
2021/06/25 08:26:37;;;;;;;13.95;10.52;;;16.60;99.90;;;;;;5074178;28;20100;-58
2021/06/25 08:29:03;;;;;;;20.13;10.77;;;16.70;99.90;;;;;;5070279;28;20012;-61
2021/06/25 08:31:29;;;;;;;15.20;11.32;;;16.80;99.90;;;;;;5066870;28;20111;-60
2021/06/25 08:33:54;;;;;;;15.63;10.63;;;17.00;99.90;;;;;;5068513;28;20062;-60
2021/06/25 08:36:20;;;;;;;12.32;10.23;;;17.30;99.90;;;;;;5068731;28;20438;-60
2021/06/25 08:38:46;;;;;;;10.80;8.98;;;17.60;99.90;;;;;;5071987;28;20044;-59
2021/06/25 08:41:11;;;;;;;14.57;9.15;;;18.00;99.90;;;;;;5071521;28;20040;-60
2021/06/25 08:43:37;;;;;;;15.65;9.95;;;18.20;99.90;;;;;;5071822;28;20449;-59
2021/06/25 08:46:03;;;;;;;12.52;9.55;;;18.00;99.90;;;;;;5067269;28;20381;-59
2021/06/25 08:48:29;;;;;;;16.10;9.70;;;17.70;99.90;;;;;;5069457;28;20040;-60
2021/06/25 08:50:57;;;;;;;12.48;9.40;;;17.40;99.90;;;;;;5065908;28;20040;-60
2021/06/25 08:53:23;;;;;;;13.95;8.88;;;17.30;99.90;;;;;;5066906;28;20039;-60
2021/06/25 08:55:49;;;;;;;14.57;9.75;;;17.40;99.90;;;;;;5070619;28;20028;-60
2021/06/25 08:58:20;;;;;;;15.02;9.32;;;17.10;99.90;;;;;;5067972;28;20043;-60
2021/06/25 09:00:46;;;;;;;12.68;9.75;;;17.00;99.90;;;;;;5074131;28;20042;-61
2021/06/25 09:03:19;;;;;;;11.45;8.95;;;16.90;99.90;;;;;;5055006;28;20028;-61
2021/06/25 09:05:44;;;;;;;16.02;11.43;;;16.80;99.90;;;;;;5071843;28;20379;-61
2021/06/25 09:08:24;;;;;;;13.95;10.30;;;16.80;99.90;;;;;;5063447;28;20083;-58
2021/06/25 09:10:52;;;;;;;15.65;10.95;;;17.10;99.90;;;;;;5071390;28;20393;-58
2021/06/25 09:13:18;;;;;;;14.15;10.38;;;17.00;99.90;;;;;;5066990;28;20024;-61
2021/06/25 09:15:44;;;;;;;14.15;12.20;;;16.80;99.90;;;;;;5072738;28;20035;-61
2021/06/25 09:18:12;;;;;;;17.50;11.05;;;16.70;99.90;;;;;;5062439;28;20025;-61
2021/06/25 09:20:39;;;;;;;16.92;11.57;;;16.70;99.90;;;;;;5041398;28;20123;-61
2021/06/25 09:23:07;;;;;;;13.57;11.05;;;16.80;99.90;;;;;;5065184;28;20031;-61
2021/06/25 09:25:54;;;;;;;13.52;11.32;;;17.00;99.90;;;;;;5042083;28;20025;-60
2021/06/25 09:28:33;;;;;;;14.02;10.52;;;17.00;99.90;;;;;;5062536;28;20315;-60
2021/06/25 09:30:59;;;;;;;14.52;9.98;;;16.90;99.90;;;;;;5054429;28;20036;-60
2021/06/25 09:33:25;;;;;;;12.60;10.93;;;16.90;99.90;;;;;;5047632;28;20328;-60
2021/06/25 09:35:52;;;;;;;14.65;10.48;;;16.80;99.90;;;;;;5061952;28;20028;-60
2021/06/25 09:38:32;;;;;;;13.10;10.63;;;16.90;99.90;;;;;;5065815;28;20044;-61
2021/06/25 09:40:58;;;;;;;13.65;10.57;;;16.70;99.90;;;;;;5064941;28;20025;-61
2021/06/25 09:43:31;;;;;;;14.48;11.15;;;16.80;99.90;;;;;;5053555;28;20070;-60
2021/06/25 09:46:00;;;;;;;13.73;10.52;;;16.80;99.90;;;;;;5067272;28;20033;-61
2021/06/25 09:48:53;;;;;;;14.05;9.93;;;16.90;99.90;;;;;;5047798;28;20461;-58
2021/06/25 09:51:20;;;;;;;15.32;10.85;;;17.20;99.90;;;;;;5060266;28;20063;-60
2021/06/25 09:54:08;;;;;;;11.55;9.65;;;17.40;99.90;;;;;;5063254;28;20055;-60
2021/06/25 09:56:39;;;;;;;13.23;10.75;;;17.40;99.90;;;;;;5067979;28;20481;-60
2021/06/25 09:59:28;;;;;;;14.30;10.40;;;17.30;99.90;;;;;;5065064;28;20095;-60
2021/06/25 10:01:54;;;;;;;11.82;10.02;;;17.30;99.90;;;;;;5060975;28;20028;-61
2021/06/25 10:04:34;;;;;;;13.55;11.02;;;17.10;99.90;;;;;;5059373;28;20024;-61
2021/06/25 10:07:34;;;;;;;12.52;10.27;;;16.90;99.90;;;;;;5068131;28;20055;-61
2021/06/25 10:10:08;;;;;;;15.98;11.25;;;17.00;99.90;;;;;;4946760;28;20612;-60
2021/06/25 10:12:39;;;;;;;14.27;10.48;;;17.00;99.90;;;;;;5014685;28;20124;-59
2021/06/25 10:15:06;;;;;;;15.77;11.20;;;17.10;99.90;;;;;;5052572;28;20035;-60
2021/06/25 10:17:35;;;;;;;17.02;11.68;;;17.20;99.90;;;;;;5034586;28;20057;-59
2021/06/25 10:20:10;;;;;;;16.13;9.85;;;17.10;99.90;;;;;;5034649;28;20034;-59
2021/06/25 10:22:37;;;;;;;14.38;11.15;;;17.20;99.90;;;;;;5045582;28;20025;-60
2021/06/25 10:25:08;;;;;;;19.38;12.15;;;17.10;99.90;;;;;;5040124;28;20444;-60
2021/06/25 10:27:35;;;;;;;12.82;11.07;;;17.20;99.90;;;;;;5050904;28;20485;-59
2021/06/25 10:30:01;;;;;;;15.65;11.35;;;17.40;99.90;;;;;;5060763;28;20033;-60
2021/06/25 10:32:26;;;;;;;16.40;10.90;;;17.50;99.90;;;;;;5047384;28;20021;-60
2021/06/25 10:34:52;;;;;;;13.65;10.23;;;17.60;99.90;;;;;;5043204;28;21585;-60
2021/06/25 10:37:23;;;;;;;12.75;11.00;;;17.70;99.90;;;;;;5066301;28;20039;-60
2021/06/25 10:39:50;;;;;;;16.08;11.70;;;17.60;99.90;;;;;;5061348;28;20461;-60
2021/06/25 10:42:16;;;;;;;19.83;12.30;;;17.40;99.90;;;;;;5049088;28;20036;-59
2021/06/25 10:44:53;;;;;;;14.73;9.93;;;17.50;99.90;;;;;;5046931;28;20104;-60
2021/06/25 10:47:33;;;;;;;14.30;10.27;;;17.70;99.90;;;;;;5058643;28;20037;-61
2021/06/25 10:49:59;;;;;;;14.00;10.23;;;17.50;99.90;;;;;;5063350;28;20075;-61
2021/06/25 10:52:36;;;;;;;11.75;9.68;;;17.50;99.90;;;;;;5069363;28;20070;-60
2021/06/25 10:55:13;;;;;;;14.15;9.93;;;17.40;99.90;;;;;;5064942;28;20028;-59
2021/06/25 10:57:51;;;;;;;12.93;10.27;;;17.40;99.90;;;;;;5049928;28;20119;-59
2021/06/25 11:00:51;;;;;;;14.00;10.65;;;17.40;99.90;;;;;;5046200;28;20116;-60
2021/06/25 11:03:40;;;;;;;12.82;10.80;;;17.50;99.90;;;;;;5063986;28;20059;-60
2021/06/25 11:06:27;;;;;;;15.27;10.18;;;17.60;99.90;;;;;;5042531;28;20032;-60
2021/06/25 11:09:06;;;;;;;10.80;9.00;;;17.80;99.90;;;;;;5061387;28;20032;-60
2021/06/25 11:11:32;;;;;;;14.20;9.63;;;17.60;99.90;;;;;;5045286;28;20401;-60
2021/06/25 11:13:58;;;;;;;15.95;10.07;;;17.60;99.90;;;;;;5059440;28;20507;-60
2021/06/25 11:16:24;;;;;;;12.07;10.60;;;17.60;99.90;;;;;;5063496;28;20025;-60
2021/06/25 11:18:51;;;;;;;13.98;10.18;;;17.50;99.90;;;;;;5056980;28;20028;-60
2021/06/25 11:21:17;;;;;;;14.93;10.48;;;17.40;99.90;;;;;;5054480;28;20029;-60
2021/06/25 11:23:45;;;;;;;15.13;10.20;;;17.50;99.90;;;;;;5052407;28;20037;-60
2021/06/25 11:26:14;;;;;;;14.63;10.38;;;17.60;99.90;;;;;;5057141;28;20029;-59
2021/06/25 11:28:42;;;;;;;11.55;9.85;;;17.70;99.90;;;;;;5066357;28;20064;-59
2021/06/25 11:31:14;;;;;;;14.20;10.68;;;17.90;99.90;;;;;;5040072;28;20389;-59
2021/06/25 11:33:39;;;;;;;13.67;9.00;;;18.30;99.90;;;;;;5047122;28;20032;-58
2021/06/25 11:36:16;;;;;;;13.13;10.07;;;18.50;99.90;;;;;;5055344;28;20317;-59
2021/06/25 11:39:07;;;;;;;11.75;9.27;;;18.80;99.90;;;;;;5058672;28;20626;-58
2021/06/25 11:41:44;;;;;;;15.45;9.77;;;19.30;99.90;;;;;;5060822;28;20498;-58
2021/06/25 11:44:27;;;;;;;13.20;9.90;;;19.10;99.90;;;;;;5041150;28;20401;-58
2021/06/25 11:46:56;;;;;;;13.45;9.98;;;19.00;99.90;;;;;;5059052;28;20020;-59
2021/06/25 11:49:25;;;;;;;12.48;9.52;;;19.00;99.90;;;;;;5058073;28;20032;-59
2021/06/25 11:51:50;;;;;;;12.65;9.40;;;19.30;99.90;;;;;;5056138;28;20033;-58
2021/06/25 11:54:22;;;;;;;14.48;8.63;;;19.20;99.90;;;;;;5045511;28;20016;-58
2021/06/25 11:56:49;;;;;;;14.20;10.13;;;19.40;99.90;;;;;;5061347;28;20071;-58
2021/06/25 11:59:17;;;;;;;13.75;9.63;;;19.70;99.90;;;;;;5036413;28;20130;-58
2021/06/25 12:01:49;;;;;;;16.00;9.40;;;19.70;99.90;;;;;;5057178;28;20024;-59
2021/06/25 12:04:14;;;;;;;16.70;9.43;;;19.80;99.90;;;;;;5061562;28;20128;-59
2021/06/25 12:06:51;;;;;;;13.77;9.25;;;19.80;99.90;;;;;;5042460;28;20115;-60
2021/06/25 12:09:17;;;;;;;15.52;8.57;;;19.50;99.90;;;;;;5058463;28;20115;-60
2021/06/25 12:11:43;;;;;;;11.85;9.07;;;19.40;99.90;;;;;;5060054;28;20103;-59
2021/06/25 12:14:10;;;;;;;11.98;9.60;;;19.40;99.90;;;;;;5053917;28;20284;-59
2021/06/25 12:16:39;;;;;;;12.70;9.95;;;19.40;99.90;;;;;;5049734;28;20351;-59
2021/06/25 12:19:12;;;;;;;12.75;9.98;;;19.40;99.90;;;;;;5054289;28;20025;-60
2021/06/25 12:21:38;;;;;;;13.98;9.73;;;19.30;99.90;;;;;;5057498;28;20111;-59
2021/06/25 12:24:06;;;;;;;14.40;10.85;;;19.00;99.90;;;;;;5045111;28;20555;-60
2021/06/25 12:26:31;;;;;;;15.32;11.20;;;18.90;99.90;;;;;;5054162;28;20101;-59
2021/06/25 12:29:02;;;;;;;18.20;12.30;;;19.00;99.90;;;;;;5059847;28;20477;-59
2021/06/25 12:31:34;;;;;;;17.90;12.60;;;18.70;99.90;;;;;;5055534;28;20056;-61
2021/06/25 12:34:05;;;;;;;14.63;11.88;;;18.70;99.90;;;;;;5053726;28;20020;-59
2021/06/25 12:36:31;;;;;;;13.55;11.68;;;18.70;99.90;;;;;;5060381;28;20092;-60
2021/06/25 12:39:02;;;;;;;16.23;12.80;;;18.80;99.90;;;;;;5042059;28;20558;-60
2021/06/25 12:41:27;;;;;;;15.85;11.95;;;19.00;99.90;;;;;;5044909;28;20025;-59
2021/06/25 12:43:55;;;;;;;14.75;13.05;;;18.90;99.90;;;;;;5037607;28;20033;-59